createdAt,value
2023-04-06T00:00:09.689Z,9.50
2023-04-06T00:02:38.001Z,9.10
2023-04-06T00:05:07.056Z,9.37
2023-04-06T00:07:36.081Z,8.70
2023-04-06T00:10:04.860Z,9.27
2023-04-06T00:12:33.010Z,9.20
2023-04-06T00:15:02.863Z,9.17
2023-04-06T00:17:31.002Z,10.23
2023-04-06T00:19:59.140Z,9.57
2023-04-06T00:22:27.225Z,10.63
2023-04-06T00:24:55.404Z,9.90
2023-04-06T00:27:23.584Z,9.43
2023-04-06T00:29:51.964Z,12.00
2023-04-06T00:32:21.524Z,10.13
2023-04-06T00:34:49.743Z,9.95
2023-04-06T00:37:17.959Z,11.23
2023-04-06T00:39:46.215Z,10.25
2023-04-06T00:42:15.502Z,10.30
2023-04-06T00:44:44.067Z,9.57
2023-04-06T00:47:12.470Z,9.40
2023-04-06T00:49:42.149Z,9.85
2023-04-06T00:52:10.681Z,9.25
2023-04-06T00:54:39.253Z,9.43
2023-04-06T00:57:07.999Z,9.50
2023-04-06T00:59:36.586Z,8.95
2023-04-06T01:02:04.972Z,11.02
2023-04-06T01:04:34.251Z,10.75
2023-04-06T01:07:04.390Z,10.05
2023-04-06T01:09:33.034Z,9.70
2023-04-06T01:12:01.871Z,9.40
2023-04-06T01:14:30.238Z,8.65
2023-04-06T01:17:01.475Z,9.55
2023-04-06T01:19:30.274Z,8.88
2023-04-06T01:21:58.482Z,9.05
2023-04-06T01:24:28.180Z,8.63
2023-04-06T01:26:57.639Z,8.40
2023-04-06T01:29:25.918Z,8.70
2023-04-06T01:31:54.187Z,8.90
2023-04-06T01:34:22.519Z,8.85
2023-04-06T01:36:51.242Z,9.38
2023-04-06T01:39:19.386Z,9.15
2023-04-06T01:41:49.162Z,9.30
2023-04-06T01:44:19.841Z,9.60
2023-04-06T01:46:48.045Z,9.40
2023-04-06T01:49:16.754Z,9.25
2023-04-06T01:51:44.937Z,9.65
2023-04-06T01:54:13.227Z,9.45
2023-04-06T01:56:41.629Z,9.25
2023-04-06T01:59:11.529Z,10.05
2023-04-06T02:01:39.988Z,10.02
2023-04-06T02:04:08.174Z,10.55
2023-04-06T02:06:36.585Z,10.02
2023-04-06T02:09:04.972Z,9.40
2023-04-06T02:11:33.515Z,10.00
2023-04-06T02:14:02.514Z,10.05
2023-04-06T02:16:32.411Z,9.90
2023-04-06T02:19:00.749Z,9.15
2023-04-06T02:21:28.954Z,9.68
2023-04-06T02:23:57.123Z,9.60
2023-04-06T02:26:25.426Z,9.57
2023-04-06T02:28:53.729Z,9.50
2023-04-06T02:31:22.158Z,9.50
2023-04-06T02:33:51.699Z,10.00
2023-04-06T02:36:19.932Z,9.73
2023-04-06T02:38:48.139Z,8.35
2023-04-06T02:41:16.341Z,9.82
2023-04-06T02:43:44.527Z,9.60
2023-04-06T02:46:12.802Z,9.45
2023-04-06T02:48:41.273Z,9.68
2023-04-06T02:51:11.066Z,9.05
2023-04-06T02:53:39.350Z,9.73
2023-04-06T02:56:08.290Z,9.25
2023-04-06T02:58:36.563Z,9.52
2023-04-06T03:01:05.211Z,8.63
2023-04-06T03:03:33.615Z,8.82
2023-04-06T03:06:01.893Z,10.18
2023-04-06T03:08:31.528Z,17.33
2023-04-06T03:11:00.202Z,15.90
2023-04-06T03:13:28.559Z,9.60
2023-04-06T03:15:56.869Z,10.73
2023-04-06T03:18:26.528Z,9.77
2023-04-06T03:20:55.987Z,9.75
2023-04-06T03:23:24.280Z,10.50
2023-04-06T03:25:53.940Z,10.32
2023-04-06T03:28:22.196Z,10.23
2023-04-06T03:30:50.836Z,9.50
2023-04-06T03:33:19.078Z,10.50
2023-04-06T03:35:47.354Z,9.68
2023-04-06T03:38:15.686Z,9.95
2023-04-06T03:40:44.332Z,9.00
2023-04-06T03:43:13.898Z,10.43
2023-04-06T03:45:42.120Z,10.50
2023-04-06T03:48:10.380Z,10.48
2023-04-06T03:50:38.665Z,9.80
2023-04-06T03:53:06.921Z,10.88
2023-04-06T03:55:35.142Z,10.00
2023-04-06T03:58:03.538Z,10.15
2023-04-06T04:00:33.991Z,10.05
2023-04-06T04:03:03.256Z,9.77
2023-04-06T04:05:31.600Z,9.75
2023-04-06T04:07:59.777Z,9.57
2023-04-06T04:10:28.054Z,9.90
2023-04-06T04:12:56.206Z,11.15
2023-04-06T04:15:24.461Z,9.52
2023-04-06T04:17:54.201Z,10.40
2023-04-06T04:20:22.644Z,9.85
2023-04-06T04:22:50.939Z,11.02
2023-04-06T04:25:19.177Z,10.70
2023-04-06T04:27:47.558Z,10.75
2023-04-06T04:30:16.391Z,10.45
2023-04-06T04:32:44.706Z,10.40
2023-04-06T04:35:14.939Z,11.52
2023-04-06T04:37:43.389Z,12.02
2023-04-06T04:40:25.361Z,10.85
2023-04-06T04:42:53.690Z,11.55
2023-04-06T04:45:21.879Z,11.25
2023-04-06T04:47:50.144Z,12.00
2023-04-06T04:50:20.392Z,10.95
2023-04-06T04:52:48.501Z,12.25
2023-04-06T04:55:17.003Z,15.95
2023-04-06T04:57:45.452Z,18.90
2023-04-06T05:00:14.867Z,19.05
2023-04-06T05:02:43.347Z,16.30
2023-04-06T05:05:11.544Z,16.50
2023-04-06T05:07:41.369Z,18.75
2023-04-06T05:10:10.358Z,14.65
2023-04-06T05:12:39.225Z,13.27
2023-04-06T05:15:08.391Z,11.65
2023-04-06T05:17:36.786Z,13.38
2023-04-06T05:20:05.278Z,11.95
2023-04-06T05:22:33.446Z,12.40
2023-04-06T05:25:03.959Z,12.45
2023-04-06T05:27:32.161Z,12.30
2023-04-06T05:30:00.547Z,11.73
2023-04-06T05:32:29.860Z,11.60
2023-04-06T05:34:58.233Z,11.50
2023-04-06T05:37:26.466Z,11.85
2023-04-06T05:39:54.633Z,12.65
2023-04-06T05:42:24.734Z,11.88
2023-04-06T05:44:53.012Z,12.82
2023-04-06T05:47:21.194Z,12.65
2023-04-06T05:49:49.350Z,13.35
2023-04-06T05:52:17.538Z,14.88
2023-04-06T05:54:45.760Z,13.23
2023-04-06T05:57:14.046Z,14.85
2023-04-06T05:59:44.060Z,12.50
2023-04-06T06:02:12.347Z,11.10
2023-04-06T06:04:40.771Z,13.25
2023-04-06T06:07:09.002Z,12.07
2023-04-06T06:09:37.323Z,13.55
2023-04-06T06:12:05.778Z,12.93
2023-04-06T06:14:34.014Z,12.45
2023-04-06T06:17:03.876Z,12.30
2023-04-06T06:19:32.218Z,13.25
2023-04-06T06:22:02.605Z,14.77
2023-04-06T06:24:32.160Z,11.50
2023-04-06T06:27:00.638Z,25.37
2023-04-06T06:29:28.769Z,16.47
2023-04-06T06:31:56.941Z,18.97
2023-04-06T06:34:26.515Z,17.87
2023-04-06T06:36:56.271Z,11.30
2023-04-06T06:39:24.470Z,14.60
2023-04-06T06:41:52.675Z,15.10
2023-04-06T06:44:20.897Z,16.87
2023-04-06T06:46:49.169Z,17.40
2023-04-06T06:49:17.336Z,11.90
2023-04-06T06:51:47.829Z,14.20
2023-04-06T06:54:16.179Z,11.60
2023-04-06T06:56:44.794Z,12.37
2023-04-06T06:59:13.080Z,12.40
2023-04-06T07:01:41.337Z,11.80
2023-04-06T07:04:10.147Z,11.60
2023-04-06T07:06:38.655Z,15.60
2023-04-06T07:09:08.309Z,12.57
2023-04-06T07:11:36.566Z,10.30
2023-04-06T07:14:04.732Z,9.70
2023-04-06T07:16:33.105Z,9.97
2023-04-06T07:19:01.420Z,9.70
2023-04-06T07:21:29.606Z,9.80
2023-04-06T07:23:57.867Z,10.27
2023-04-06T07:26:27.751Z,10.03
2023-04-06T07:28:55.952Z,9.93
2023-04-06T07:31:24.535Z,11.03
2023-04-06T07:33:52.688Z,10.13
2023-04-06T07:36:20.904Z,9.50
2023-04-06T07:38:49.914Z,10.37
2023-04-06T07:41:18.701Z,10.00
2023-04-06T07:43:48.475Z,10.57
2023-04-06T07:46:16.772Z,9.70
2023-04-06T07:48:45.098Z,9.53
2023-04-06T07:51:15.966Z,10.80
2023-04-06T07:53:44.231Z,10.90
2023-04-06T07:56:13.112Z,10.80
2023-04-06T07:58:41.296Z,10.13
2023-04-06T08:01:11.026Z,9.67
2023-04-06T08:03:39.335Z,10.13
2023-04-06T08:06:08.976Z,9.90
2023-04-06T08:08:37.211Z,10.10
2023-04-06T08:11:05.447Z,9.87
2023-04-06T08:13:33.645Z,10.30
2023-04-06T08:16:02.179Z,9.40
2023-04-06T08:18:31.923Z,10.33
2023-04-06T08:21:00.208Z,9.07
2023-04-06T08:23:28.413Z,9.47
2023-04-06T08:25:57.037Z,9.70
2023-04-06T08:28:25.764Z,9.07
2023-04-06T08:30:53.990Z,9.13
2023-04-06T08:33:22.229Z,9.63
2023-04-06T08:35:52.497Z,9.60
2023-04-06T08:38:20.857Z,9.97
2023-04-06T08:40:50.847Z,10.00
2023-04-06T08:43:21.571Z,9.13
2023-04-06T08:45:50.052Z,8.83
2023-04-06T08:48:19.801Z,9.17
2023-04-06T08:50:48.318Z,9.63
2023-04-06T08:53:18.704Z,7.90
2023-04-06T08:55:47.233Z,9.20
2023-04-06T08:58:24.133Z,8.37
2023-04-06T09:01:00.634Z,9.10
2023-04-06T09:03:30.677Z,8.53
2023-04-06T09:06:00.638Z,8.73
2023-04-06T09:08:30.322Z,8.77
2023-04-06T09:10:58.773Z,8.50
2023-04-06T09:13:27.195Z,7.60
2023-04-06T09:16:02.822Z,6.70
2023-04-06T09:18:31.992Z,7.63
2023-04-06T09:21:02.312Z,7.50
2023-04-06T09:23:32.445Z,8.07
2023-04-06T09:26:11.531Z,7.70
2023-04-06T09:28:47.460Z,6.50
2023-04-06T09:31:16.661Z,6.80
2023-04-06T09:33:47.019Z,7.60
2023-04-06T09:36:16.808Z,6.60
2023-04-06T09:38:57.598Z,6.60
2023-04-06T09:41:27.089Z,7.03
2023-04-06T09:44:04.712Z,6.47
2023-04-06T09:46:46.493Z,7.00
2023-04-06T09:49:24.943Z,7.00
2023-04-06T09:51:57.835Z,6.93
2023-04-06T09:54:30.893Z,7.43
2023-04-06T09:57:09.936Z,6.33
2023-04-06T09:59:46.071Z,6.10
2023-04-06T10:02:21.406Z,6.70
2023-04-06T10:04:58.951Z,7.20
2023-04-06T10:07:28.749Z,7.27
2023-04-06T10:09:59.197Z,7.17
2023-04-06T10:12:27.454Z,6.70
2023-04-06T10:14:56.448Z,6.00
2023-04-06T10:17:25.671Z,7.30
2023-04-06T10:19:57.167Z,6.77
2023-04-06T10:22:38.702Z,6.40
2023-04-06T10:25:10.096Z,7.57
2023-04-06T10:27:38.487Z,6.80
2023-04-06T10:30:08.531Z,7.10
2023-04-06T10:32:38.343Z,7.10
2023-04-06T10:35:11.249Z,7.70
2023-04-06T10:37:50.276Z,6.47
2023-04-06T10:40:26.109Z,7.17
2023-04-06T10:42:55.026Z,7.50
2023-04-06T10:45:24.783Z,6.67
2023-04-06T10:47:55.414Z,6.67
2023-04-06T10:50:24.615Z,6.97
2023-04-06T10:53:02.115Z,6.70
2023-04-06T10:55:32.963Z,6.50
2023-04-06T10:58:01.291Z,6.53
2023-04-06T11:00:39.361Z,5.97
2023-04-06T11:03:15.695Z,6.47
2023-04-06T11:05:48.102Z,6.40
2023-04-06T11:08:25.791Z,8.70
2023-04-06T11:11:07.661Z,7.60
2023-04-06T11:13:43.333Z,9.70
2023-04-06T11:16:18.078Z,6.30
2023-04-06T11:18:53.996Z,6.40
2023-04-06T11:21:32.317Z,6.67
2023-04-06T11:24:07.391Z,6.00
2023-04-06T11:26:41.407Z,5.93
2023-04-06T11:29:10.003Z,6.27
2023-04-06T11:31:42.811Z,7.30
2023-04-06T11:34:15.139Z,6.07
2023-04-06T11:36:44.472Z,6.40
2023-04-06T11:39:13.883Z,6.10
2023-04-06T11:41:43.406Z,7.20
2023-04-06T11:44:11.575Z,6.90
2023-04-06T11:46:39.911Z,6.53
2023-04-06T11:49:08.135Z,6.73
2023-04-06T11:51:38.745Z,6.40
2023-04-06T11:54:06.944Z,6.73
2023-04-06T11:56:35.126Z,6.40
2023-04-06T11:59:05.522Z,5.80
2023-04-06T12:01:38.764Z,6.20
2023-04-06T12:04:07.605Z,5.97
2023-04-06T12:06:36.259Z,6.17
2023-04-06T12:09:04.518Z,6.57
2023-04-06T12:11:32.834Z,6.20
2023-04-06T12:14:02.613Z,6.77
2023-04-06T12:16:32.259Z,7.50
2023-04-06T12:19:01.089Z,6.63
2023-04-06T12:21:29.638Z,7.53
2023-04-06T12:23:57.755Z,7.30
2023-04-06T12:26:25.982Z,7.20
2023-04-06T12:28:54.228Z,6.97
2023-04-06T12:31:24.220Z,6.90
2023-04-06T12:33:54.214Z,6.70
2023-04-06T12:36:23.238Z,7.60
2023-04-06T12:38:52.331Z,7.57
2023-04-06T12:41:20.932Z,7.53
2023-04-06T12:43:50.734Z,7.03
2023-04-06T12:46:19.481Z,8.53
2023-04-06T12:48:47.836Z,8.20
2023-04-06T12:51:18.419Z,7.60
2023-04-06T12:53:46.655Z,7.57
2023-04-06T12:56:16.669Z,7.83
2023-04-06T12:58:45.188Z,6.70
2023-04-06T13:01:14.123Z,7.10
2023-04-06T13:03:43.133Z,6.17
2023-04-06T13:06:12.049Z,7.93
2023-04-06T13:08:42.152Z,6.50
2023-04-06T13:11:10.525Z,6.97
2023-04-06T13:13:39.614Z,6.60
2023-04-06T13:16:10.607Z,6.90
2023-04-06T13:18:40.113Z,7.07
2023-04-06T13:21:09.077Z,7.20
2023-04-06T13:23:37.498Z,6.30
2023-04-06T13:26:08.623Z,6.60
2023-04-06T13:28:38.804Z,6.40
2023-04-06T13:31:07.606Z,6.43
2023-04-06T13:33:36.440Z,6.60
2023-04-06T13:36:05.547Z,5.70
2023-04-06T13:38:34.663Z,4.90
2023-04-06T13:41:02.901Z,6.70
2023-04-06T13:43:32.434Z,6.37
2023-04-06T13:46:02.350Z,6.30
2023-04-06T13:48:30.606Z,6.47
2023-04-06T13:50:59.653Z,5.33
2023-04-06T13:53:27.742Z,6.07
2023-04-06T13:55:56.390Z,5.83
2023-04-06T13:58:25.003Z,6.43
2023-04-06T14:00:54.676Z,5.53
2023-04-06T14:03:23.671Z,5.50
2023-04-06T14:05:52.396Z,4.97
2023-04-06T14:08:20.516Z,6.27
2023-04-06T14:10:48.754Z,5.90
2023-04-06T14:13:18.183Z,6.20
2023-04-06T14:15:46.349Z,5.47
2023-04-06T14:18:16.118Z,5.97
2023-04-06T14:20:44.929Z,6.43
2023-04-06T14:23:13.137Z,6.40
2023-04-06T14:25:41.414Z,5.77
2023-04-06T14:28:09.488Z,6.07
2023-04-06T14:30:37.691Z,5.93
2023-04-06T14:33:06.558Z,5.90
2023-04-06T14:35:36.047Z,5.60
2023-04-06T14:38:04.159Z,5.73
2023-04-06T14:40:32.215Z,6.00
2023-04-06T14:43:00.268Z,5.73
2023-04-06T14:45:28.378Z,6.27
2023-04-06T14:47:56.509Z,6.63
2023-04-06T14:50:24.636Z,6.60
2023-04-06T14:52:54.191Z,6.30
2023-04-06T14:55:22.287Z,6.03
2023-04-06T14:57:50.377Z,6.30
2023-04-06T15:00:19.269Z,5.67
2023-04-06T15:02:47.695Z,6.00
2023-04-06T15:05:15.915Z,6.33
2023-04-06T15:07:43.933Z,6.07
2023-04-06T15:10:13.689Z,6.57
2023-04-06T15:12:41.776Z,6.03
2023-04-06T15:15:10.668Z,6.77
2023-04-06T15:17:39.024Z,6.60
2023-04-06T15:20:08.285Z,6.50
2023-04-06T15:22:37.746Z,5.63
2023-04-06T15:25:06.760Z,5.67
2023-04-06T15:27:36.317Z,6.70
2023-04-06T15:30:04.811Z,6.43
2023-04-06T15:32:32.933Z,6.63
2023-04-06T15:35:01.379Z,6.33
2023-04-06T15:37:29.537Z,6.57
2023-04-06T15:39:59.107Z,6.93
2023-04-06T15:42:28.269Z,6.00
2023-04-06T15:44:57.665Z,5.90
2023-04-06T15:47:25.683Z,6.87
2023-04-06T15:49:53.744Z,6.50
2023-04-06T15:52:22.857Z,5.70
2023-04-06T15:54:51.518Z,6.00
2023-04-06T15:57:19.563Z,5.67
2023-04-06T15:59:48.035Z,6.03
2023-04-06T16:02:17.685Z,6.57
2023-04-06T16:04:45.861Z,6.63
2023-04-06T16:07:13.957Z,6.40
2023-04-06T16:09:43.578Z,6.33
2023-04-06T16:12:11.664Z,6.23
2023-04-06T16:14:39.746Z,6.87
2023-04-06T16:17:07.813Z,7.10
2023-04-06T16:19:37.698Z,6.77
2023-04-06T16:22:06.259Z,6.73
2023-04-06T16:24:34.529Z,7.73
2023-04-06T16:27:02.959Z,7.53
2023-04-06T16:29:31.916Z,8.65
2023-04-06T16:32:00.248Z,7.70
2023-04-06T16:34:33.006Z,8.63
2023-04-06T16:37:02.795Z,7.53
2023-04-06T16:39:30.941Z,7.73
2023-04-06T16:41:59.733Z,7.50
2023-04-06T16:44:29.923Z,7.53
2023-04-06T16:46:57.964Z,7.30
2023-04-06T16:49:26.160Z,7.33
2023-04-06T16:51:54.510Z,7.70
2023-04-06T16:54:23.967Z,8.40
2023-04-06T16:56:51.997Z,7.13
2023-04-06T16:59:20.132Z,7.23
2023-04-06T17:01:48.203Z,8.07
2023-04-06T17:04:16.360Z,7.10
2023-04-06T17:06:44.458Z,7.30
2023-04-06T17:09:12.499Z,8.20
2023-04-06T17:11:46.995Z,7.70
2023-04-06T17:14:15.452Z,7.57
2023-04-06T17:16:43.543Z,7.17
2023-04-06T17:19:11.813Z,7.10
2023-04-06T17:21:41.636Z,7.10
2023-04-06T17:24:09.873Z,6.37
2023-04-06T17:26:38.109Z,6.03
2023-04-06T17:29:07.685Z,5.07
2023-04-06T17:31:36.120Z,6.33
2023-04-06T17:34:04.246Z,4.90
2023-04-06T17:36:32.871Z,4.90
2023-04-06T17:39:00.942Z,4.53
2023-04-06T17:41:32.572Z,5.60
2023-04-06T17:44:00.844Z,4.33
2023-04-06T17:46:30.323Z,4.20
2023-04-06T17:48:58.448Z,4.13
2023-04-06T17:51:27.183Z,4.80
2023-04-06T17:53:55.355Z,4.47
2023-04-06T17:56:24.189Z,5.10
2023-04-06T17:58:55.993Z,4.63
2023-04-06T18:01:24.405Z,5.17
2023-04-06T18:03:54.054Z,5.37
2023-04-06T18:06:25.584Z,4.77
2023-04-06T18:08:54.547Z,5.73
2023-04-06T18:11:23.294Z,4.80
2023-04-06T18:13:51.789Z,5.83
2023-04-06T18:16:21.652Z,7.27
2023-04-06T18:18:50.008Z,7.60
2023-04-06T18:21:19.425Z,7.07
2023-04-06T18:23:47.886Z,6.87
2023-04-06T18:26:18.086Z,5.43
2023-04-06T18:28:46.583Z,4.30
2023-04-06T18:31:15.874Z,4.40
2023-04-06T18:33:44.380Z,4.57
2023-04-06T18:36:14.251Z,3.73
2023-04-06T18:38:45.607Z,4.20
2023-04-06T18:41:13.793Z,4.07
2023-04-06T18:43:41.965Z,2.90
2023-04-06T18:46:14.160Z,2.90
2023-04-06T18:48:42.575Z,1.93
2023-04-06T18:51:10.944Z,2.40
2023-04-06T18:53:54.120Z,2.57
2023-04-06T18:56:23.730Z,2.80
2023-04-06T18:58:51.823Z,2.60
2023-04-06T19:01:24.317Z,2.60
2023-04-06T19:03:53.409Z,2.90
2023-04-06T19:06:21.857Z,2.90
2023-04-06T19:08:50.810Z,2.70
2023-04-06T19:11:19.952Z,3.07
2023-04-06T19:13:50.928Z,3.10
2023-04-06T19:16:19.839Z,3.20
2023-04-06T19:18:47.936Z,2.50
2023-04-06T19:21:17.096Z,3.30
2023-04-06T19:23:45.772Z,2.90
2023-04-06T19:26:14.669Z,3.67
2023-04-06T19:28:42.763Z,3.07
2023-04-06T19:31:14.828Z,2.90
2023-04-06T19:33:44.654Z,3.13
2023-04-06T19:36:12.826Z,3.40
2023-04-06T19:38:41.137Z,3.03
2023-04-06T19:41:09.286Z,3.50
2023-04-06T19:43:37.584Z,3.70
2023-04-06T19:46:06.112Z,3.70
2023-04-06T19:48:35.872Z,3.90
2023-04-06T19:51:03.958Z,3.93
2023-04-06T19:53:32.029Z,4.23
2023-04-06T19:56:00.174Z,4.07
2023-04-06T19:58:28.343Z,4.40
2023-04-06T20:00:56.483Z,4.80
2023-04-06T20:03:24.661Z,4.70
2023-04-06T20:05:54.174Z,5.67
2023-04-06T20:08:23.563Z,5.00
2023-04-06T20:10:52.173Z,5.63
2023-04-06T20:13:20.892Z,6.47
2023-04-06T20:15:49.990Z,5.90
2023-04-06T20:18:17.990Z,6.70
2023-04-06T20:20:46.226Z,7.07
2023-04-06T20:23:15.734Z,6.97
2023-04-06T20:25:43.896Z,7.60
2023-04-06T20:28:12.039Z,7.77
2023-04-06T20:30:40.558Z,8.27
2023-04-06T20:33:08.772Z,8.43
2023-04-06T20:35:36.906Z,10.33
2023-04-06T20:38:04.990Z,11.00
2023-04-06T20:40:34.507Z,11.20
2023-04-06T20:43:05.091Z,11.50
2023-04-06T20:45:38.327Z,10.50
2023-04-06T20:48:06.669Z,10.20
2023-04-06T20:50:34.754Z,10.30
2023-04-06T20:53:02.867Z,10.40
2023-04-06T20:55:31.290Z,10.70
2023-04-06T20:58:00.821Z,10.17
2023-04-06T21:00:28.886Z,10.37
2023-04-06T21:02:57.262Z,10.63
2023-04-06T21:05:25.688Z,11.17
2023-04-06T21:07:54.004Z,10.80
2023-04-06T21:10:23.678Z,10.87
2023-04-06T21:12:52.216Z,11.70
2023-04-06T21:15:21.637Z,11.43
2023-04-06T21:17:49.802Z,12.80
2023-04-06T21:20:18.046Z,12.30
2023-04-06T21:22:46.178Z,13.40
2023-04-06T21:25:14.916Z,13.70
2023-04-06T21:27:43.026Z,13.00
2023-04-06T21:30:12.406Z,13.60
2023-04-06T21:32:41.898Z,14.07
2023-04-06T21:35:11.240Z,14.30
2023-04-06T21:37:39.229Z,13.40
2023-04-06T21:40:08.803Z,15.53
2023-04-06T21:42:36.808Z,13.70
2023-04-06T21:45:05.412Z,13.63
2023-04-06T21:47:35.960Z,13.10
2023-04-06T21:50:06.039Z,13.60
2023-04-06T21:52:34.244Z,13.13
2023-04-06T21:55:02.362Z,13.63
2023-04-06T21:57:30.426Z,13.13
2023-04-06T21:59:58.547Z,13.80
2023-04-06T22:02:26.898Z,12.77
2023-04-06T22:04:55.531Z,13.00
2023-04-06T22:07:25.103Z,13.83
2023-04-06T22:09:53.848Z,13.47
2023-04-06T22:12:22.066Z,12.67
2023-04-06T22:14:50.170Z,13.73
2023-04-06T22:17:18.229Z,13.53
2023-04-06T22:19:46.252Z,13.47
2023-04-06T22:22:14.352Z,13.30
2023-04-06T22:24:43.820Z,14.00
2023-04-06T22:27:11.853Z,13.80
2023-04-06T22:29:39.949Z,13.13
2023-04-06T22:32:08.128Z,12.70
2023-04-06T22:34:36.306Z,13.50
2023-04-06T22:37:04.424Z,14.00
2023-04-06T22:39:32.614Z,14.07
2023-04-06T22:42:02.016Z,13.83
2023-04-06T22:44:30.032Z,13.90
2023-04-06T22:46:58.113Z,13.27
2023-04-06T22:49:26.210Z,12.63
2023-04-06T22:51:54.337Z,13.07
2023-04-06T22:54:22.346Z,12.83
2023-04-06T22:56:50.552Z,12.37
2023-04-06T22:59:19.984Z,12.70
2023-04-06T23:01:48.115Z,12.70
2023-04-06T23:04:16.649Z,12.93
2023-04-06T23:06:45.153Z,13.60
2023-04-06T23:09:13.176Z,12.70
2023-04-06T23:11:41.421Z,13.90
2023-04-06T23:14:09.494Z,12.50
2023-04-06T23:16:39.046Z,12.87
2023-04-06T23:19:07.091Z,13.27
2023-04-06T23:21:35.404Z,12.80
2023-04-06T23:24:03.826Z,12.93
2023-04-06T23:26:31.955Z,12.67
2023-04-06T23:28:59.985Z,13.20
2023-04-06T23:31:28.166Z,13.33
2023-04-06T23:33:57.696Z,12.73
2023-04-06T23:36:25.976Z,13.60
2023-04-06T23:38:54.064Z,13.40
2023-04-06T23:41:22.517Z,12.40
2023-04-06T23:43:50.665Z,13.17
2023-04-06T23:46:19.417Z,12.73
2023-04-06T23:48:47.586Z,12.80
2023-04-06T23:51:16.970Z,12.70
2023-04-06T23:53:46.268Z,13.43
2023-04-06T23:56:14.502Z,12.40
2023-04-06T23:58:42.566Z,12.60
